createdAt,value
2024-03-09T00:00:41.776Z,21.77
2024-03-09T00:03:12.982Z,25.73
2024-03-09T00:05:43.586Z,18.80
2024-03-09T00:08:11.684Z,20.40
2024-03-09T00:10:39.268Z,26.83
2024-03-09T00:13:06.475Z,20.50
2024-03-09T00:15:34.652Z,17.15
2024-03-09T00:18:01.625Z,17.85
2024-03-09T00:20:36.538Z,27.10
2024-03-09T00:23:07.519Z,24.58
2024-03-09T00:25:35.748Z,23.58
2024-03-09T00:28:02.609Z,15.80
2024-03-09T00:30:32.488Z,20.15
2024-03-09T00:33:00.605Z,20.45
2024-03-09T00:35:31.842Z,18.30
2024-03-09T00:38:00.994Z,19.58
2024-03-09T00:40:32.184Z,16.20
2024-03-09T00:43:01.234Z,23.10
2024-03-09T00:45:28.267Z,19.30
2024-03-09T00:47:55.367Z,20.70
2024-03-09T00:50:28.446Z,19.15
2024-03-09T00:52:56.279Z,24.67
2024-03-09T00:55:24.144Z,23.55
2024-03-09T00:57:52.011Z,21.35
2024-03-09T01:00:20.318Z,19.55
2024-03-09T01:02:50.403Z,22.35
2024-03-09T01:05:21.434Z,13.85
2024-03-09T01:07:48.861Z,20.02
2024-03-09T01:10:16.633Z,22.02
2024-03-09T01:12:43.609Z,23.67
2024-03-09T01:15:11.090Z,21.45
2024-03-09T01:17:38.373Z,15.98
2024-03-09T01:20:08.454Z,19.83
2024-03-09T01:22:36.997Z,22.25
2024-03-09T01:25:04.607Z,16.85
2024-03-09T01:27:31.662Z,16.83
2024-03-09T01:30:01.185Z,20.67
2024-03-09T01:32:29.328Z,19.13
2024-03-09T01:34:57.401Z,18.10
2024-03-09T01:37:24.889Z,18.23
2024-03-09T01:39:52.072Z,29.65
2024-03-09T01:42:22.935Z,19.48
2024-03-09T01:44:51.845Z,22.55
2024-03-09T01:47:23.852Z,17.80
2024-03-09T01:49:55.368Z,17.67
2024-03-09T01:52:24.809Z,20.30
2024-03-09T01:54:55.040Z,21.05
2024-03-09T01:57:22.067Z,19.10
2024-03-09T01:59:55.732Z,15.75
2024-03-09T02:02:25.917Z,19.67
2024-03-09T02:04:52.908Z,21.48
2024-03-09T02:07:20.005Z,24.65
2024-03-09T02:09:49.473Z,19.58
2024-03-09T02:12:18.796Z,19.95
2024-03-09T02:14:46.090Z,18.30
2024-03-09T02:17:14.002Z,18.67
2024-03-09T02:19:42.241Z,20.92
2024-03-09T02:22:14.901Z,22.02
2024-03-09T02:27:10.254Z,19.17
2024-03-09T02:29:37.281Z,15.05
2024-03-09T02:32:05.522Z,22.52
2024-03-09T02:34:33.162Z,15.68
2024-03-09T02:37:00.152Z,19.27
2024-03-09T02:39:29.285Z,15.15
2024-03-09T02:41:59.266Z,13.93
2024-03-09T02:44:29.110Z,20.63
2024-03-09T02:46:56.712Z,21.17
2024-03-09T02:49:25.683Z,22.30
2024-03-09T02:51:55.542Z,16.63
2024-03-09T02:54:24.180Z,23.00
2024-03-09T02:56:51.101Z,18.92
2024-03-09T02:59:18.123Z,16.63
2024-03-09T03:01:47.762Z,17.65
2024-03-09T03:04:16.201Z,16.70
2024-03-09T03:06:44.347Z,20.10
2024-03-09T03:09:16.961Z,16.65
2024-03-09T03:11:44.446Z,21.25
2024-03-09T03:14:12.196Z,21.75
2024-03-09T03:16:39.331Z,16.27
2024-03-09T03:19:08.116Z,12.90
2024-03-09T03:21:36.392Z,11.02
2024-03-09T03:24:03.926Z,15.27
2024-03-09T03:26:31.468Z,17.92
2024-03-09T03:28:58.697Z,13.35
2024-03-09T03:31:27.969Z,13.25
2024-03-09T03:33:54.805Z,11.35
2024-03-09T03:36:23.280Z,11.40
2024-03-09T03:38:50.854Z,14.13
2024-03-09T03:41:20.070Z,9.90
2024-03-09T03:43:47.025Z,9.05
2024-03-09T03:46:15.409Z,18.35
2024-03-09T03:48:47.001Z,12.88
2024-03-09T03:51:15.222Z,13.05
2024-03-09T03:53:43.556Z,7.97
2024-03-09T03:56:11.062Z,10.90
2024-03-09T03:58:39.038Z,9.15
2024-03-09T04:01:06.667Z,10.30
2024-03-09T04:03:33.765Z,11.25
2024-03-09T04:06:01.175Z,9.93
2024-03-09T04:08:28.738Z,9.35
2024-03-09T04:10:56.645Z,10.57
2024-03-09T04:13:25.084Z,10.57
2024-03-09T04:15:53.661Z,8.68
2024-03-09T04:18:22.965Z,10.02
2024-03-09T04:20:50.514Z,8.13
2024-03-09T04:23:17.938Z,9.75
2024-03-09T04:25:51.820Z,10.95
2024-03-09T04:28:22.871Z,8.10
2024-03-09T04:30:51.731Z,9.02
2024-03-09T04:33:20.977Z,7.82
2024-03-09T04:35:51.967Z,9.15
2024-03-09T04:38:19.625Z,10.65
2024-03-09T04:40:51.220Z,9.60
2024-03-09T04:43:19.772Z,6.78
2024-03-09T04:45:47.528Z,6.60
2024-03-09T04:48:15.906Z,8.25
2024-03-09T04:50:49.112Z,8.15
2024-03-09T04:53:18.767Z,6.13
2024-03-09T04:55:50.806Z,8.80
2024-03-09T04:58:23.670Z,11.60
2024-03-09T05:00:51.321Z,4.10
2024-03-09T05:03:19.977Z,7.85
2024-03-09T05:05:47.983Z,12.43
2024-03-09T05:08:14.910Z,7.85
2024-03-09T05:10:42.847Z,8.13
2024-03-09T05:13:10.275Z,4.88
2024-03-09T05:15:38.330Z,6.30
2024-03-09T05:18:11.053Z,5.72
2024-03-09T05:20:39.166Z,6.53
2024-03-09T05:23:13.174Z,3.42
2024-03-09T05:25:43.198Z,4.20
2024-03-09T05:28:14.612Z,7.38
2024-03-09T05:33:10.519Z,5.47
2024-03-09T05:35:38.185Z,2.60
2024-03-09T05:38:06.137Z,8.45
2024-03-09T05:40:33.663Z,3.80
2024-03-09T05:43:08.289Z,6.07
2024-03-09T05:45:37.306Z,5.10
2024-03-09T05:48:04.704Z,4.93
2024-03-09T05:50:31.983Z,2.47
2024-03-09T05:53:01.444Z,4.50
2024-03-09T05:55:29.121Z,4.85
2024-03-09T05:57:57.793Z,1.98
2024-03-09T06:00:26.807Z,2.70
2024-03-09T06:02:54.854Z,4.63
2024-03-09T06:05:23.456Z,0.80
2024-03-09T06:07:50.558Z,0.95
2024-03-09T06:10:18.766Z,2.17
2024-03-09T06:12:53.118Z,10.93
2024-03-09T06:15:21.915Z,2.50
2024-03-09T06:17:49.554Z,1.40
2024-03-09T06:20:19.023Z,1.23
2024-03-09T06:22:47.140Z,0.77
2024-03-09T06:25:25.100Z,0.68
2024-03-09T06:27:56.546Z,1.08
2024-03-09T06:30:29.346Z,0.40
2024-03-09T06:32:59.949Z,1.73
2024-03-09T06:35:27.343Z,0.47
2024-03-09T06:38:07.575Z,2.58
2024-03-09T06:40:38.247Z,1.90
2024-03-09T06:43:06.953Z,5.05
2024-03-09T06:45:35.308Z,3.70
2024-03-09T06:48:02.423Z,0.80
2024-03-09T06:50:30.641Z,2.85
2024-03-09T06:52:57.656Z,2.90
2024-03-09T06:55:26.821Z,1.02
2024-03-09T06:57:58.023Z,1.90
2024-03-09T07:00:26.453Z,1.55
2024-03-09T07:02:54.855Z,0.43
2024-03-09T07:05:22.115Z,1.08
2024-03-09T07:07:49.631Z,3.25
2024-03-09T07:10:16.557Z,0.93
2024-03-09T07:12:43.460Z,4.25
2024-03-09T07:15:17.843Z,3.33
2024-03-09T07:17:52.007Z,1.05
2024-03-09T07:20:19.820Z,1.13
2024-03-09T07:22:51.134Z,3.38
2024-03-09T07:25:26.828Z,3.17
2024-03-09T07:27:56.201Z,2.55
2024-03-09T07:30:24.426Z,1.40
2024-03-09T07:32:51.786Z,1.02
2024-03-09T07:35:21.153Z,2.45
2024-03-09T07:37:49.337Z,1.58
2024-03-09T07:40:19.865Z,1.98
2024-03-09T07:42:47.029Z,3.58
2024-03-09T07:45:17.233Z,3.80
2024-03-09T07:47:46.472Z,3.58
2024-03-09T07:50:15.973Z,2.63
2024-03-09T07:52:48.259Z,3.20
2024-03-09T07:55:19.266Z,3.83
2024-03-09T07:57:46.363Z,3.83
2024-03-09T08:00:18.652Z,2.03
2024-03-09T08:05:18.388Z,4.45
2024-03-09T08:07:45.638Z,2.40
2024-03-09T08:10:19.098Z,2.38
2024-03-09T08:12:47.000Z,6.50
2024-03-09T08:15:14.592Z,2.60
2024-03-09T08:17:41.655Z,3.75
2024-03-09T08:20:09.826Z,5.07
2024-03-09T08:22:41.349Z,2.78
2024-03-09T08:25:14.062Z,6.38
2024-03-09T08:27:43.842Z,5.35
2024-03-09T08:30:16.747Z,4.32
2024-03-09T08:32:49.678Z,3.70
2024-03-09T08:35:18.069Z,4.43
2024-03-09T08:37:46.550Z,8.15
2024-03-09T08:40:24.160Z,5.55
2024-03-09T08:42:53.237Z,6.10
2024-03-09T08:45:25.315Z,4.32
2024-03-09T08:47:53.783Z,6.80
2024-03-09T08:50:22.990Z,7.43
2024-03-09T08:52:50.989Z,6.93
2024-03-09T08:55:19.717Z,5.35
2024-03-09T08:57:53.602Z,4.70
2024-03-09T09:00:25.610Z,5.72
2024-03-09T09:02:53.842Z,4.07
2024-03-09T09:05:22.742Z,4.72
2024-03-09T09:07:51.236Z,7.00
2024-03-09T09:10:22.911Z,7.72
2024-03-09T09:12:52.840Z,7.13
2024-03-09T09:15:22.319Z,5.30
2024-03-09T09:17:50.891Z,4.40
2024-03-09T09:20:21.054Z,4.95
2024-03-09T09:22:48.946Z,5.72
2024-03-09T09:25:18.448Z,4.93
2024-03-09T09:27:46.561Z,5.25
2024-03-09T09:30:13.959Z,2.95
2024-03-09T09:32:45.044Z,4.13
2024-03-09T09:35:13.903Z,7.50
2024-03-09T09:37:41.063Z,5.28
2024-03-09T09:40:09.110Z,3.40
2024-03-09T09:42:37.614Z,3.78
2024-03-09T09:45:06.429Z,3.67
2024-03-09T09:47:34.981Z,4.13
2024-03-09T09:50:05.566Z,3.92
2024-03-09T09:52:37.457Z,7.43
2024-03-09T09:55:04.640Z,3.90
2024-03-09T09:57:33.100Z,4.53
2024-03-09T10:00:00.196Z,3.83
2024-03-09T10:02:27.186Z,7.18
2024-03-09T10:04:56.091Z,6.75
2024-03-09T10:07:23.069Z,3.33
2024-03-09T10:09:50.745Z,6.05
2024-03-09T10:12:24.665Z,3.42
2024-03-09T10:14:53.032Z,3.88
2024-03-09T10:17:23.113Z,3.88
2024-03-09T10:19:51.163Z,3.70
2024-03-09T10:22:18.239Z,3.20
2024-03-09T10:24:58.096Z,2.13
2024-03-09T10:27:28.615Z,2.95
2024-03-09T10:30:13.329Z,2.67
2024-03-09T10:32:44.127Z,3.42
2024-03-09T10:35:12.536Z,2.90
2024-03-09T10:37:41.185Z,2.25
2024-03-09T10:40:15.358Z,1.67
2024-03-09T10:42:48.417Z,2.08
2024-03-09T10:45:17.105Z,2.38
2024-03-09T10:47:51.473Z,3.95
2024-03-09T10:50:30.010Z,1.88
2024-03-09T10:53:12.208Z,1.77
2024-03-09T10:55:56.837Z,4.18
2024-03-09T10:58:29.156Z,3.55
2024-03-09T11:00:57.031Z,4.40
2024-03-09T11:03:26.798Z,2.85
2024-03-09T11:05:54.967Z,2.95
2024-03-09T11:08:23.002Z,3.08
2024-03-09T11:10:51.616Z,3.83
2024-03-09T11:13:19.665Z,7.32
2024-03-09T11:15:53.003Z,5.53
2024-03-09T11:18:23.239Z,14.07
2024-03-09T11:21:01.585Z,8.27
2024-03-09T11:23:34.148Z,5.78
2024-03-09T11:26:01.973Z,7.25
2024-03-09T11:28:48.783Z,8.63
2024-03-09T11:31:17.900Z,6.85
2024-03-09T11:33:53.019Z,6.20
2024-03-09T11:36:40.086Z,5.53
2024-03-09T11:39:10.560Z,9.15
2024-03-09T11:41:44.165Z,10.90
2024-03-09T11:44:11.776Z,7.85
2024-03-09T11:46:38.730Z,5.50
2024-03-09T11:49:06.266Z,6.97
2024-03-09T11:51:37.399Z,9.38
2024-03-09T11:54:07.974Z,7.40
2024-03-09T11:56:35.639Z,5.20
2024-03-09T11:59:03.344Z,7.65
2024-03-09T12:01:30.183Z,6.55
2024-03-09T12:04:01.686Z,9.95
2024-03-09T12:06:29.614Z,13.50
2024-03-09T12:08:57.180Z,13.02
2024-03-09T12:11:24.990Z,14.13
2024-03-09T12:13:51.990Z,7.28
2024-03-09T12:16:19.243Z,8.10
2024-03-09T12:18:50.644Z,10.07
2024-03-09T12:21:23.468Z,7.82
2024-03-09T12:23:54.494Z,7.97
2024-03-09T12:26:23.405Z,8.18
2024-03-09T12:28:51.002Z,9.63
2024-03-09T12:31:17.887Z,8.23
2024-03-09T12:33:46.304Z,8.85
2024-03-09T12:36:16.223Z,12.15
2024-03-09T12:38:43.178Z,10.23
2024-03-09T12:41:24.842Z,8.98
2024-03-09T12:43:51.801Z,7.28
2024-03-09T12:46:19.538Z,10.45
2024-03-09T12:48:46.408Z,7.70
2024-03-09T12:51:14.599Z,14.55
2024-03-09T12:53:41.473Z,6.97
2024-03-09T12:56:08.395Z,10.52
2024-03-09T12:58:35.219Z,12.38
2024-03-09T13:01:03.714Z,12.65
2024-03-09T13:03:30.560Z,10.93
2024-03-09T13:05:57.410Z,9.52
2024-03-09T13:08:28.049Z,11.52
2024-03-09T13:10:55.245Z,12.25
2024-03-09T13:13:22.215Z,9.23
2024-03-09T13:15:55.798Z,13.25
2024-03-09T13:18:23.810Z,12.10
2024-03-09T13:20:52.522Z,9.68
2024-03-09T13:23:20.053Z,12.48
2024-03-09T13:25:49.560Z,11.82
2024-03-09T13:28:16.596Z,9.00
2024-03-09T13:30:43.990Z,10.70
2024-03-09T13:33:11.183Z,8.30
2024-03-09T13:35:38.450Z,15.20
2024-03-09T13:38:08.604Z,12.60
2024-03-09T13:40:35.510Z,10.68
2024-03-09T13:43:05.238Z,23.70
2024-03-09T13:45:33.032Z,9.57
2024-03-09T13:48:14.781Z,9.65
2024-03-09T13:50:41.792Z,9.90
2024-03-09T13:53:08.813Z,8.95
2024-03-09T13:55:36.326Z,11.10
2024-03-09T13:58:03.893Z,8.70
2024-03-09T14:00:31.000Z,12.40
2024-03-09T14:02:59.991Z,10.30
2024-03-09T14:05:30.906Z,8.40
2024-03-09T14:07:58.635Z,9.57
2024-03-09T14:10:35.893Z,10.15
2024-03-09T14:13:08.041Z,13.20
2024-03-09T14:15:37.472Z,11.43
2024-03-09T14:18:15.823Z,14.23
2024-03-09T14:20:43.343Z,8.73
2024-03-09T14:23:14.352Z,10.57
2024-03-09T14:25:41.276Z,9.50
2024-03-09T14:28:12.297Z,11.95
2024-03-09T14:30:42.241Z,11.18
2024-03-09T14:33:13.862Z,14.90
2024-03-09T14:35:41.892Z,11.43
2024-03-09T14:38:11.219Z,12.48
2024-03-09T14:40:38.290Z,12.02
2024-03-09T14:43:09.777Z,10.32
2024-03-09T14:45:38.088Z,10.97
2024-03-09T14:48:06.360Z,8.63
2024-03-09T14:50:33.607Z,13.82
2024-03-09T14:53:01.456Z,11.02
2024-03-09T14:55:28.956Z,11.70
2024-03-09T14:57:58.065Z,8.88
2024-03-09T15:00:43.705Z,12.30
2024-03-09T15:03:38.472Z,8.52
2024-03-09T15:06:05.517Z,11.98
2024-03-09T15:08:32.294Z,12.02
2024-03-09T15:11:00.478Z,11.75
2024-03-09T15:13:44.076Z,16.15
2024-03-09T15:16:12.984Z,15.98
2024-03-09T15:18:43.190Z,11.75
2024-03-09T15:21:38.387Z,17.65
2024-03-09T15:24:05.102Z,12.75
2024-03-09T15:26:35.905Z,11.27
2024-03-09T15:29:03.011Z,11.18
2024-03-09T15:31:30.594Z,10.43
2024-03-09T15:33:57.771Z,8.70
2024-03-09T15:36:25.493Z,10.07
2024-03-09T15:38:55.537Z,8.13
2024-03-09T15:41:22.632Z,10.50
2024-03-09T15:43:51.057Z,11.25
2024-03-09T15:46:20.329Z,13.85
2024-03-09T15:48:48.396Z,14.32
2024-03-09T15:51:15.690Z,12.73
2024-03-09T15:53:43.284Z,9.60
2024-03-09T15:56:12.031Z,12.07
2024-03-09T15:58:42.047Z,15.15
2024-03-09T16:01:16.709Z,12.77
2024-03-09T16:03:44.992Z,13.55
2024-03-09T16:06:15.239Z,22.75
2024-03-09T16:08:42.402Z,11.95
2024-03-09T16:11:09.805Z,14.30
2024-03-09T16:13:37.190Z,15.95
2024-03-09T16:16:14.520Z,15.80
2024-03-09T16:18:42.252Z,10.20
2024-03-09T16:21:09.815Z,13.00
2024-03-09T16:23:38.358Z,14.57
2024-03-09T16:26:06.909Z,11.73
2024-03-09T16:28:37.344Z,12.27
2024-03-09T16:31:05.514Z,12.73
2024-03-09T16:33:33.656Z,13.40
2024-03-09T16:36:03.378Z,10.40
2024-03-09T16:38:31.156Z,12.98
2024-03-09T16:40:58.347Z,18.88
2024-03-09T16:43:31.444Z,12.77
2024-03-09T16:46:05.313Z,13.02
2024-03-09T16:48:33.653Z,13.43
2024-03-09T16:51:02.453Z,16.10
2024-03-09T16:53:34.221Z,14.27
2024-03-09T16:56:05.582Z,14.35
2024-03-09T16:58:32.820Z,10.85
2024-03-09T17:01:05.806Z,15.73
2024-03-09T17:03:33.523Z,15.38
2024-03-09T17:06:01.081Z,13.27
2024-03-09T17:08:28.066Z,17.95
2024-03-09T17:10:55.813Z,14.05
2024-03-09T17:13:25.734Z,10.70
2024-03-09T17:15:52.647Z,17.98
2024-03-09T17:18:22.924Z,10.40
2024-03-09T17:20:54.021Z,11.32
2024-03-09T17:23:22.434Z,9.55
2024-03-09T17:25:50.566Z,11.93
2024-03-09T17:28:21.590Z,8.63
2024-03-09T17:30:50.098Z,13.90
2024-03-09T17:33:17.850Z,11.38
2024-03-09T17:35:45.046Z,13.10
2024-03-09T17:38:13.499Z,14.82
2024-03-09T17:40:47.665Z,14.63
2024-03-09T17:43:16.068Z,10.02
2024-03-09T17:45:42.855Z,15.98
2024-03-09T17:48:09.822Z,14.52
2024-03-09T17:50:37.744Z,27.65
2024-03-09T17:53:06.546Z,18.13
2024-03-09T17:55:33.804Z,12.73
2024-03-09T17:58:08.132Z,14.30
2024-03-09T18:00:36.395Z,22.42
2024-03-09T18:03:03.938Z,13.45
2024-03-09T18:05:53.815Z,13.13
2024-03-09T18:08:22.565Z,13.98
2024-03-09T18:10:49.962Z,13.13
2024-03-09T18:13:16.900Z,11.35
2024-03-09T18:15:44.494Z,16.10
2024-03-09T18:18:12.722Z,11.43
2024-03-09T18:20:42.723Z,16.52
2024-03-09T18:23:10.433Z,11.02
2024-03-09T18:25:37.416Z,20.73
2024-03-09T18:28:04.751Z,17.05
2024-03-09T18:30:32.990Z,11.13
2024-03-09T18:32:59.880Z,13.82
2024-03-09T18:35:26.871Z,14.38
2024-03-09T18:38:03.328Z,10.88
2024-03-09T18:40:30.380Z,15.55
2024-03-09T18:43:00.794Z,15.15
2024-03-09T18:45:34.431Z,16.15
2024-03-09T18:48:02.534Z,12.80
2024-03-09T18:50:29.627Z,11.90
2024-03-09T18:53:01.603Z,15.85
2024-03-09T18:55:39.389Z,11.23
2024-03-09T18:58:09.180Z,10.90
2024-03-09T19:00:37.582Z,10.38
2024-03-09T19:03:09.184Z,12.45
2024-03-09T19:05:36.101Z,15.83
2024-03-09T19:08:05.050Z,12.40
2024-03-09T19:10:33.704Z,12.65
2024-03-09T19:13:05.188Z,14.32
2024-03-09T19:18:00.905Z,27.15
2024-03-09T19:20:29.240Z,10.25
2024-03-09T19:22:56.824Z,12.82
2024-03-09T19:25:24.418Z,12.75
2024-03-09T19:27:53.019Z,13.23
2024-03-09T19:30:27.061Z,14.32
2024-03-09T19:32:56.969Z,13.70
2024-03-09T19:35:25.714Z,13.13
2024-03-09T19:37:53.114Z,14.00
2024-03-09T19:40:21.658Z,14.15
2024-03-09T19:42:49.777Z,11.93
2024-03-09T19:45:19.096Z,10.65
2024-03-09T19:47:48.475Z,11.30
2024-03-09T19:50:19.466Z,8.95
2024-03-09T19:52:50.380Z,14.15
2024-03-09T19:55:20.479Z,11.55
2024-03-09T19:57:48.616Z,13.95
2024-03-09T20:00:19.904Z,10.77
2024-03-09T20:02:52.105Z,13.25
2024-03-09T20:05:22.432Z,10.60
2024-03-09T20:07:56.843Z,10.85
2024-03-09T20:10:25.747Z,10.80
2024-03-09T20:13:04.092Z,15.82
2024-03-09T20:15:32.874Z,10.52
2024-03-09T20:18:06.229Z,13.65
2024-03-09T20:20:48.459Z,16.42
2024-03-09T20:23:15.306Z,13.90
2024-03-09T20:25:43.588Z,11.70
2024-03-09T20:28:12.188Z,14.75
2024-03-09T20:30:39.120Z,15.82
2024-03-09T20:33:11.250Z,9.60
2024-03-09T20:35:38.320Z,13.25
2024-03-09T20:38:08.919Z,12.43
2024-03-09T20:40:37.648Z,10.75
2024-03-09T20:43:04.484Z,12.70
2024-03-09T20:45:31.239Z,11.13
2024-03-09T20:47:58.782Z,8.43
2024-03-09T20:50:27.435Z,13.38
2024-03-09T20:52:59.705Z,8.02
2024-03-09T20:55:28.616Z,11.52
2024-03-09T20:57:55.826Z,9.65
2024-03-09T21:00:29.193Z,17.35
2024-03-09T21:02:56.382Z,10.18
2024-03-09T21:05:23.323Z,9.75
2024-03-09T21:07:50.376Z,10.10
2024-03-09T21:10:17.270Z,7.78
2024-03-09T21:12:47.948Z,11.30
2024-03-09T21:15:15.106Z,9.93
2024-03-09T21:17:42.391Z,18.60
2024-03-09T21:20:15.640Z,6.38
2024-03-09T21:22:43.141Z,7.70
2024-03-09T21:25:13.740Z,8.57
2024-03-09T21:27:43.892Z,11.68
2024-03-09T21:30:13.890Z,13.52
2024-03-09T21:32:43.210Z,15.02
2024-03-09T21:35:13.801Z,8.25
2024-03-09T21:37:44.954Z,7.55
2024-03-09T21:40:13.829Z,8.55
2024-03-09T21:42:41.585Z,13.25
2024-03-09T21:45:08.813Z,8.35
2024-03-09T21:47:39.132Z,15.43
2024-03-09T21:50:06.773Z,8.93
2024-03-09T21:52:34.703Z,9.93
2024-03-09T21:55:01.552Z,5.07
2024-03-09T21:57:28.388Z,7.55
2024-03-09T21:59:55.190Z,8.73
2024-03-09T22:02:22.556Z,8.50
2024-03-09T22:04:49.569Z,10.13
2024-03-09T22:07:16.475Z,9.13
2024-03-09T22:09:43.754Z,13.43
2024-03-09T22:12:12.197Z,9.35
2024-03-09T22:14:39.887Z,8.73
2024-03-09T22:17:07.266Z,8.68
2024-03-09T22:19:34.255Z,7.45
2024-03-09T22:22:01.083Z,8.18
2024-03-09T22:24:28.339Z,4.28
2024-03-09T22:26:55.650Z,6.55
2024-03-09T22:29:23.684Z,9.73
2024-03-09T22:31:50.576Z,11.35
2024-03-09T22:34:17.472Z,6.07
2024-03-09T22:36:44.223Z,7.18
2024-03-09T22:39:13.093Z,8.48
2024-03-09T22:41:39.933Z,12.30
2024-03-09T22:44:07.600Z,11.05
2024-03-09T22:46:35.681Z,5.65
2024-03-09T22:49:06.053Z,6.10
2024-03-09T22:51:33.897Z,8.25
2024-03-09T22:54:01.766Z,14.48
2024-03-09T22:56:28.701Z,8.07
2024-03-09T22:58:56.178Z,11.70
2024-03-09T23:01:26.523Z,8.98
2024-03-09T23:03:54.221Z,11.02
2024-03-09T23:06:21.224Z,10.80
2024-03-09T23:08:48.954Z,12.32
2024-03-09T23:11:19.106Z,9.02
2024-03-09T23:13:47.992Z,10.13
2024-03-09T23:16:15.451Z,11.68
2024-03-09T23:18:43.384Z,8.95
2024-03-09T23:21:10.870Z,7.28
2024-03-09T23:23:37.824Z,8.30
2024-03-09T23:26:04.846Z,9.50
2024-03-09T23:28:31.730Z,10.50
2024-03-09T23:31:00.253Z,7.70
2024-03-09T23:33:27.220Z,8.88
2024-03-09T23:35:54.034Z,10.45
2024-03-09T23:38:22.575Z,8.40
2024-03-09T23:40:50.711Z,7.65
2024-03-09T23:43:19.486Z,10.88
2024-03-09T23:45:46.967Z,11.88
2024-03-09T23:48:16.982Z,13.15
2024-03-09T23:50:44.169Z,8.20
2024-03-09T23:53:13.138Z,10.63
2024-03-09T23:55:41.267Z,9.93
2024-03-09T23:58:08.445Z,7.65
